sensor_id;sensor_type;location;lat;lon;timestamp;pressure;altitude;pressure_sealevel;temperature;humidity
54808;BME280;40708;50.364;7.550;2023-07-30T00:01:05;101820.19;;;17.46;100.00
54808;BME280;40708;50.364;7.550;2023-07-30T00:03:30;101834.50;;;17.43;100.00
54808;BME280;40708;50.364;7.550;2023-07-30T00:05:56;101860.44;;;17.46;100.00
54808;BME280;40708;50.364;7.550;2023-07-30T00:08:21;101875.63;;;17.48;100.00
54808;BME280;40708;50.364;7.550;2023-07-30T00:10:47;101885.47;;;17.55;100.00
54808;BME280;40708;50.364;7.550;2023-07-30T00:13:12;101887.22;;;17.59;100.00
54808;BME280;40708;50.364;7.550;2023-07-30T00:15:37;101879.19;;;17.58;100.00
54808;BME280;40708;50.364;7.550;2023-07-30T00:18:03;101887.25;;;17.58;100.00
54808;BME280;40708;50.364;7.550;2023-07-30T00:20:28;101883.66;;;17.56;100.00
54808;BME280;40708;50.364;7.550;2023-07-30T00:22:53;101895.31;;;17.55;100.00
54808;BME280;40708;50.364;7.550;2023-07-30T00:25:19;101904.22;;;17.58;100.00
54808;BME280;40708;50.364;7.550;2023-07-30T00:27:44;101913.19;;;17.60;100.00
54808;BME280;40708;50.364;7.550;2023-07-30T00:30:10;101916.72;;;17.64;100.00
54808;BME280;40708;50.364;7.550;2023-07-30T00:32:35;101925.66;;;17.69;100.00
54808;BME280;40708;50.364;7.550;2023-07-30T00:35:00;101925.63;;;17.72;100.00
54808;BME280;40708;50.364;7.550;2023-07-30T00:37:26;101925.56;;;17.84;100.00
54808;BME280;40708;50.364;7.550;2023-07-30T00:39:51;101903.16;;;17.90;100.00
54808;BME280;40708;50.364;7.550;2023-07-30T00:42:16;101899.53;;;17.95;100.00
54808;BME280;40708;50.364;7.550;2023-07-30T00:44:42;101875.34;;;17.98;100.00
54808;BME280;40708;50.364;7.550;2023-07-30T00:47:07;101853.84;;;18.01;100.00
54808;BME280;40708;50.364;7.550;2023-07-30T00:49:32;101824.28;;;18.04;100.00
54808;BME280;40708;50.364;7.550;2023-07-30T00:51:58;101809.94;;;18.07;100.00
54808;BME280;40708;50.364;7.550;2023-07-30T00:54:24;101801.88;;;18.05;100.00
54808;BME280;40708;50.364;7.550;2023-07-30T00:56:51;101789.34;;;18.07;100.00
54808;BME280;40708;50.364;7.550;2023-07-30T00:59:18;101772.31;;;18.08;100.00
54808;BME280;40708;50.364;7.550;2023-07-30T01:01:45;101767.84;;;18.07;100.00
54808;BME280;40708;50.364;7.550;2023-07-30T01:04:13;101747.25;;;18.09;100.00
54808;BME280;40708;50.364;7.550;2023-07-30T01:06:38;101740.06;;;18.10;100.00
54808;BME280;40708;50.364;7.550;2023-07-30T01:09:04;101726.66;;;18.10;100.00
54808;BME280;40708;50.364;7.550;2023-07-30T01:11:29;101716.78;;;18.10;100.00
54808;BME280;40708;50.364;7.550;2023-07-30T01:13:55;101705.13;;;18.11;100.00
54808;BME280;40708;50.364;7.550;2023-07-30T01:16:22;101683.63;;;18.14;100.00
54808;BME280;40708;50.364;7.550;2023-07-30T01:18:47;101662.13;;;18.13;100.00
54808;BME280;40708;50.364;7.550;2023-07-30T01:21:12;101654.97;;;18.13;100.00
54808;BME280;40708;50.364;7.550;2023-07-30T01:23:38;101635.25;;;18.14;100.00
54808;BME280;40708;50.364;7.550;2023-07-30T01:26:19;101607.47;;;18.17;100.00
54808;BME280;40708;50.364;7.550;2023-07-30T01:28:49;101600.28;;;18.19;100.00
54808;BME280;40708;50.364;7.550;2023-07-30T01:31:17;101582.41;;;18.18;100.00
54808;BME280;40708;50.364;7.550;2023-07-30T01:33:47;101568.97;;;18.18;100.00
54808;BME280;40708;50.364;7.550;2023-07-30T01:36:15;101561.78;;;18.18;100.00
54808;BME280;40708;50.364;7.550;2023-07-30T01:38:42;101551.97;;;18.16;100.00
54808;BME280;40708;50.364;7.550;2023-07-30T01:41:08;101548.38;;;18.17;100.00
54808;BME280;40708;50.364;7.550;2023-07-30T01:43:33;101527.78;;;18.16;100.00
54808;BME280;40708;50.364;7.550;2023-07-30T01:45:59;101521.50;;;18.20;100.00
54808;BME280;40708;50.364;7.550;2023-07-30T01:48:24;101491.94;;;18.20;100.00
54808;BME280;40708;50.364;7.550;2023-07-30T01:50:49;101475.81;;;18.20;100.00
54808;BME280;40708;50.364;7.550;2023-07-30T01:53:15;101461.47;;;18.22;100.00
54808;BME280;40708;50.364;7.550;2023-07-30T01:55:40;101442.66;;;18.22;100.00
54808;BME280;40708;50.364;7.550;2023-07-30T01:58:09;101422.06;;;18.23;100.00
54808;BME280;40708;50.364;7.550;2023-07-30T02:00:35;101417.59;;;18.22;100.00
54808;BME280;40708;50.364;7.550;2023-07-30T02:03:00;101391.63;;;18.21;100.00
54808;BME280;40708;50.364;7.550;2023-07-30T02:05:26;101388.03;;;18.23;100.00
54808;BME280;40708;50.364;7.550;2023-07-30T02:07:51;101380.03;;;18.19;100.00
54808;BME280;40708;50.364;7.550;2023-07-30T02:10:16;101377.34;;;18.20;100.00
54808;BME280;40708;50.364;7.550;2023-07-30T02:12:42;101378.19;;;18.22;100.00
54808;BME280;40708;50.364;7.550;2023-07-30T02:15:07;101368.38;;;18.20;100.00
54808;BME280;40708;50.364;7.550;2023-07-30T02:17:33;101377.34;;;18.20;100.00
54808;BME280;40708;50.364;7.550;2023-07-30T02:19:58;101372.81;;;18.21;100.00
54808;BME280;40708;50.364;7.550;2023-07-30T02:22:24;101360.31;;;18.20;100.00
54808;BME280;40708;50.364;7.550;2023-07-30T02:24:49;101354.06;;;18.19;100.00
54808;BME280;40708;50.364;7.550;2023-07-30T02:27:14;101346.94;;;18.17;100.00
54808;BME280;40708;50.364;7.550;2023-07-30T02:29:40;101347.84;;;18.16;100.00
54808;BME280;40708;50.364;7.550;2023-07-30T02:32:06;101347.00;;;18.14;100.00
54808;BME280;40708;50.364;7.550;2023-07-30T02:34:31;101354.16;;;18.15;100.00
54808;BME280;40708;50.364;7.550;2023-07-30T02:36:56;101357.78;;;18.12;100.00
54808;BME280;40708;50.364;7.550;2023-07-30T02:39:22;101361.41;;;18.10;100.00
54808;BME280;40708;50.364;7.550;2023-07-30T02:41:47;101374.81;;;18.10;100.00
54808;BME280;40708;50.364;7.550;2023-07-30T02:44:12;101381.09;;;18.09;100.00
54808;BME280;40708;50.364;7.550;2023-07-30T02:46:38;101374.88;;;18.05;100.00
54808;BME280;40708;50.364;7.550;2023-07-30T02:49:03;101373.97;;;18.06;100.00
54808;BME280;40708;50.364;7.550;2023-07-30T02:51:28;101376.66;;;18.06;100.00
54808;BME280;40708;50.364;7.550;2023-07-30T02:53:57;101381.19;;;18.04;100.00
54808;BME280;40708;50.364;7.550;2023-07-30T02:56:24;101372.22;;;18.02;100.00
54808;BME280;40708;50.364;7.550;2023-07-30T02:58:49;101377.59;;;18.04;100.00
54808;BME280;40708;50.364;7.550;2023-07-30T03:01:14;101375.81;;;18.03;100.00
54808;BME280;40708;50.364;7.550;2023-07-30T03:03:40;101379.44;;;18.00;100.00
54808;BME280;40708;50.364;7.550;2023-07-30T03:06:05;101377.69;;;17.98;100.00
54808;BME280;40708;50.364;7.550;2023-07-30T03:08:30;101380.31;;;18.01;100.00
54808;BME280;40708;50.364;7.550;2023-07-30T03:10:59;101362.44;;;18.00;100.00
54808;BME280;40708;50.364;7.550;2023-07-30T03:13:25;101352.63;;;17.99;100.00
54808;BME280;40708;50.364;7.550;2023-07-30T03:15:50;101346.34;;;17.98;100.00
54808;BME280;40708;50.364;7.550;2023-07-30T03:18:15;101337.41;;;17.98;100.00
54808;BME280;40708;50.364;7.550;2023-07-30T03:20:41;101336.47;;;18.00;100.00
54808;BME280;40708;50.364;7.550;2023-07-30T03:23:06;101323.03;;;18.02;100.00
54808;BME280;40708;50.364;7.550;2023-07-30T03:25:31;101317.66;;;18.02;100.00
54808;BME280;40708;50.364;7.550;2023-07-30T03:27:57;101306.94;;;18.00;100.00
54808;BME280;40708;50.364;7.550;2023-07-30T03:30:22;101303.31;;;18.03;100.00
54808;BME280;40708;50.364;7.550;2023-07-30T03:32:47;101297.94;;;18.04;100.00
54808;BME280;40708;50.364;7.550;2023-07-30T03:35:12;101324.78;;;18.03;100.00
54808;BME280;40708;50.364;7.550;2023-07-30T03:37:38;101347.25;;;17.99;100.00
54808;BME280;40708;50.364;7.550;2023-07-30T03:40:04;101361.53;;;17.99;100.00
54808;BME280;40708;50.364;7.550;2023-07-30T03:42:29;101371.47;;;17.96;100.00
54808;BME280;40708;50.364;7.550;2023-07-30T03:44:55;101392.09;;;17.94;100.00
54808;BME280;40708;50.364;7.550;2023-07-30T03:47:20;101388.50;;;17.92;100.00
54808;BME280;40708;50.364;7.550;2023-07-30T03:49:45;101408.22;;;17.89;100.00
54808;BME280;40708;50.364;7.550;2023-07-30T03:52:10;101436.91;;;17.85;100.00
54808;BME280;40708;50.364;7.550;2023-07-30T03:54:36;101442.31;;;17.84;100.00
54808;BME280;40708;50.364;7.550;2023-07-30T03:57:01;101445.97;;;17.78;100.00
54808;BME280;40708;50.364;7.550;2023-07-30T03:59:26;101463.91;;;17.75;100.00
54808;BME280;40708;50.364;7.550;2023-07-30T04:01:53;101484.53;;;17.70;100.00
54808;BME280;40708;50.364;7.550;2023-07-30T04:04:18;101521.22;;;17.71;100.00
54808;BME280;40708;50.364;7.550;2023-07-30T04:06:44;101502.44;;;17.69;100.00
54808;BME280;40708;50.364;7.550;2023-07-30T04:09:09;101495.28;;;17.71;100.00
54808;BME280;40708;50.364;7.550;2023-07-30T04:11:34;101501.50;;;17.73;100.00
54808;BME280;40708;50.364;7.550;2023-07-30T04:14:00;101511.34;;;17.73;100.00
54808;BME280;40708;50.364;7.550;2023-07-30T04:16:25;101524.78;;;17.73;100.00
54808;BME280;40708;50.364;7.550;2023-07-30T04:18:50;101555.19;;;17.73;100.00
54808;BME280;40708;50.364;7.550;2023-07-30T04:21:16;101543.50;;;17.77;100.00
54808;BME280;40708;50.364;7.550;2023-07-30T04:23:41;101565.88;;;17.79;100.00
54808;BME280;40708;50.364;7.550;2023-07-30T04:26:07;101569.44;;;17.78;100.00
54808;BME280;40708;50.364;7.550;2023-07-30T04:28:32;101578.34;;;17.80;100.00
54808;BME280;40708;50.364;7.550;2023-07-30T04:30:58;101569.34;;;17.86;100.00
54808;BME280;40708;50.364;7.550;2023-07-30T04:33:23;101548.72;;;17.90;100.00
54808;BME280;40708;50.364;7.550;2023-07-30T04:35:49;101554.03;;;17.94;100.00
54808;BME280;40708;50.364;7.550;2023-07-30T04:38:14;101544.19;;;17.96;100.00
54808;BME280;40708;50.364;7.550;2023-07-30T04:40:39;101530.69;;;17.99;100.00
54808;BME280;40708;50.364;7.550;2023-07-30T04:43:06;101519.06;;;18.02;100.00
54808;BME280;40708;50.364;7.550;2023-07-30T04:45:31;101512.75;;;18.04;100.00
54808;BME280;40708;50.364;7.550;2023-07-30T04:47:57;101492.09;;;18.09;100.00
54808;BME280;40708;50.364;7.550;2023-07-30T04:50:22;101493.81;;;18.13;100.00
54808;BME280;40708;50.364;7.550;2023-07-30T04:52:47;101487.47;;;18.19;100.00
54808;BME280;40708;50.364;7.550;2023-07-30T04:55:13;101481.06;;;18.27;100.00
54808;BME280;40708;50.364;7.550;2023-07-30T04:57:39;101468.47;;;18.32;100.00
54808;BME280;40708;50.364;7.550;2023-07-30T05:00:05;101454.13;;;18.33;100.00
54808;BME280;40708;50.364;7.550;2023-07-30T05:02:31;101435.22;;;18.39;100.00
54808;BME280;40708;50.364;7.550;2023-07-30T05:04:56;101414.59;;;18.41;100.00
54808;BME280;40708;50.364;7.550;2023-07-30T05:07:21;101408.22;;;18.50;100.00
54808;BME280;40708;50.364;7.550;2023-07-30T05:09:47;101386.28;;;18.74;100.00
54808;BME280;40708;50.364;7.550;2023-07-30T05:12:12;-25017.16;;;19.19;100.00
54808;BME280;40708;50.364;7.550;2023-07-30T05:14:37;101175.97;;;19.78;100.00
54808;BME280;40708;50.364;7.550;2023-07-30T05:17:03;101039.66;;;20.65;100.00
54808;BME280;40708;50.364;7.550;2023-07-30T05:19:28;100816.03;;;21.11;100.00
54808;BME280;40708;50.364;7.550;2023-07-30T05:21:54;100682.78;;;21.80;100.00
54808;BME280;40708;50.364;7.550;2023-07-30T05:24:19;100583.53;;;22.46;100.00
54808;BME280;40708;50.364;7.550;2023-07-30T05:26:44;100458.00;;;22.51;100.00
54808;BME280;40708;50.364;7.550;2023-07-30T05:29:09;100378.16;;;22.26;100.00
54808;BME280;40708;50.364;7.550;2023-07-30T05:31:35;100364.84;;;21.84;100.00
54808;BME280;40708;50.364;7.550;2023-07-30T05:34:00;100395.63;;;21.41;100.00
54808;BME280;40708;50.364;7.550;2023-07-30T05:36:26;100439.00;;;21.16;100.00
54808;BME280;40708;50.364;7.550;2023-07-30T05:38:51;100478.81;;;20.88;100.00
54808;BME280;40708;50.364;7.550;2023-07-30T05:41:16;100525.41;;;20.47;100.00
54808;BME280;40708;50.364;7.550;2023-07-30T05:43:41;100566.16;;;20.62;100.00
54808;BME280;40708;50.364;7.550;2023-07-30T05:46:07;100539.09;;;20.65;100.00
54808;BME280;40708;50.364;7.550;2023-07-30T05:48:33;100565.97;;;20.44;100.00
54808;BME280;40708;50.364;7.550;2023-07-30T05:50:58;100587.47;;;20.20;100.00
54808;BME280;40708;50.364;7.550;2023-07-30T05:53:24;100636.78;;;20.24;100.00
54808;BME280;40708;50.364;7.550;2023-07-30T05:55:49;100638.72;;;20.19;100.00
54808;BME280;40708;50.364;7.550;2023-07-30T05:58:15;100666.88;;;20.10;100.00
54808;BME280;40708;50.364;7.550;2023-07-30T06:00:41;100687.31;;;20.16;100.00
54808;BME280;40708;50.364;7.550;2023-07-30T06:03:06;100693.53;;;20.18;100.00
54808;BME280;40708;50.364;7.550;2023-07-30T06:05:38;100687.22;;;20.19;100.00
54808;BME280;40708;50.364;7.550;2023-07-30T06:08:04;100687.19;;;19.94;100.00
54808;BME280;40708;50.364;7.550;2023-07-30T06:10:29;100719.59;;;19.91;100.00
54808;BME280;40708;50.364;7.550;2023-07-30T06:12:54;100730.19;;;19.96;100.00
54808;BME280;40708;50.364;7.550;2023-07-30T06:15:20;100722.94;;;19.98;100.00
54808;BME280;40708;50.364;7.550;2023-07-30T06:17:45;100740.16;;;19.94;100.00
54808;BME280;40708;50.364;7.550;2023-07-30T06:20:11;100731.28;;;19.90;100.00
54808;BME280;40708;50.364;7.550;2023-07-30T06:22:36;100774.88;;;19.46;100.00
54808;BME280;40708;50.364;7.550;2023-07-30T06:25:02;100818.44;;;19.29;100.00
54808;BME280;40708;50.364;7.550;2023-07-30T06:27:27;100863.19;;;19.32;100.00
54808;BME280;40708;50.364;7.550;2023-07-30T06:29:52;100895.59;;;19.27;100.00
54808;BME280;40708;50.364;7.550;2023-07-30T06:32:18;100908.50;;;19.15;100.00
54808;BME280;40708;50.364;7.550;2023-07-30T06:34:43;100939.75;;;19.19;100.00
54808;BME280;40708;50.364;7.550;2023-07-30T06:37:08;100958.22;;;19.32;100.00
54808;BME280;40708;50.364;7.550;2023-07-30T06:39:34;100932.97;;;19.38;100.00
54808;BME280;40708;50.364;7.550;2023-07-30T06:41:59;100964.34;;;19.40;100.00
54808;BME280;40708;50.364;7.550;2023-07-30T06:44:24;101000.63;;;19.23;100.00
54808;BME280;40708;50.364;7.550;2023-07-30T06:46:50;101042.72;;;19.25;100.00
54808;BME280;40708;50.364;7.550;2023-07-30T06:49:15;101083.22;;;19.19;100.00
54808;BME280;40708;50.364;7.550;2023-07-30T06:51:41;101122.03;;;19.09;100.00
54808;BME280;40708;50.364;7.550;2023-07-30T06:54:06;101143.69;;;19.03;100.00
54808;BME280;40708;50.364;7.550;2023-07-30T06:56:31;101155.50;;;18.96;100.00
54808;BME280;40708;50.364;7.550;2023-07-30T06:58:57;101200.50;;;18.88;100.00
54808;BME280;40708;50.364;7.550;2023-07-30T07:01:22;101153.25;;;18.78;100.00
54808;BME280;40708;50.364;7.550;2023-07-30T07:03:47;101154.31;;;18.69;100.00
54808;BME280;40708;50.364;7.550;2023-07-30T07:06:13;101179.22;;;18.77;100.00
54808;BME280;40708;50.364;7.550;2023-07-30T07:08:38;101198.09;;;18.74;100.00
54808;BME280;40708;50.364;7.550;2023-07-30T07:11:03;101193.34;;;18.87;100.00
54808;BME280;40708;50.364;7.550;2023-07-30T07:13:29;101206.50;;;19.00;100.00
54808;BME280;40708;50.364;7.550;2023-07-30T07:15:54;101193.16;;;18.96;100.00
54808;BME280;40708;50.364;7.550;2023-07-30T07:18:19;101131.56;;;18.84;100.00
54808;BME280;40708;50.364;7.550;2023-07-30T07:20:45;101142.31;;;18.85;100.00
54808;BME280;40708;50.364;7.550;2023-07-30T07:23:10;100957.34;;;18.63;100.00
54808;BME280;40708;50.364;7.550;2023-07-30T07:25:35;100962.25;;;18.44;100.00
54808;BME280;40708;50.364;7.550;2023-07-30T07:28:02;101074.28;;;18.40;100.00
54808;BME280;40708;50.364;7.550;2023-07-30T07:30:27;101139.81;;;18.32;100.00
54808;BME280;40708;50.364;7.550;2023-07-30T07:32:53;101234.72;;;18.34;100.00
54808;BME280;40708;50.364;7.550;2023-07-30T07:35:19;101232.03;;;18.32;100.00
54808;BME280;40708;50.364;7.550;2023-07-30T07:37:45;101207.06;;;18.29;100.00
54808;BME280;40708;50.364;7.550;2023-07-30T07:40:10;101327.09;;;18.25;100.00
54808;BME280;40708;50.364;7.550;2023-07-30T07:42:37;101390.63;;;18.28;100.00
54808;BME280;40708;50.364;7.550;2023-07-30T07:45:04;101397.03;;;18.19;100.00
54808;BME280;40708;50.364;7.550;2023-07-30T07:47:29;101394.03;;;17.81;100.00
54808;BME280;40708;50.364;7.550;2023-07-30T07:49:54;101460.50;;;17.62;100.00
54808;BME280;40708;50.364;7.550;2023-07-30T07:52:20;101531.47;;;17.31;100.00
54808;BME280;40708;50.364;7.550;2023-07-30T07:54:45;101588.06;;;16.96;100.00
54808;BME280;40708;50.364;7.550;2023-07-30T07:57:11;101665.94;;;16.75;100.00
54808;BME280;40708;50.364;7.550;2023-07-30T07:59:36;101741.06;;;16.61;100.00
54808;BME280;40708;50.364;7.550;2023-07-30T08:02:02;101816.09;;;16.58;100.00
54808;BME280;40708;50.364;7.550;2023-07-30T08:04:27;101885.72;;;16.52;100.00
54808;BME280;40708;50.364;7.550;2023-07-30T08:06:52;101959.84;;;16.47;100.00
54808;BME280;40708;50.364;7.550;2023-07-30T08:09:18;102016.16;;;16.56;100.00
54808;BME280;40708;50.364;7.550;2023-07-30T08:11:43;102061.69;;;16.52;100.00
54808;BME280;40708;50.364;7.550;2023-07-30T08:14:08;102122.44;;;16.56;100.00
54808;BME280;40708;50.364;7.550;2023-07-30T08:16:34;102172.44;;;16.49;100.00
54808;BME280;40708;50.364;7.550;2023-07-30T08:18:59;102191.16;;;16.43;100.00
54808;BME280;40708;50.364;7.550;2023-07-30T08:21:24;102237.69;;;16.57;100.00
54808;BME280;40708;50.364;7.550;2023-07-30T08:23:50;102257.38;;;16.72;100.00
54808;BME280;40708;50.364;7.550;2023-07-30T08:26:15;102288.72;;;16.85;100.00
54808;BME280;40708;50.364;7.550;2023-07-30T08:28:40;102311.13;;;17.05;100.00
54808;BME280;40708;50.364;7.550;2023-07-30T08:31:06;102315.63;;;17.18;100.00
54808;BME280;40708;50.364;7.550;2023-07-30T08:33:31;102325.53;;;17.33;100.00
54808;BME280;40708;50.364;7.550;2023-07-30T08:35:58;102331.81;;;17.41;100.00
54808;BME280;40708;50.364;7.550;2023-07-30T08:38:24;102326.41;;;17.27;100.00
54808;BME280;40708;50.364;7.550;2023-07-30T08:40:49;102343.47;;;17.47;100.00
54808;BME280;40708;50.364;7.550;2023-07-30T08:43:15;102331.88;;;17.65;100.00
54808;BME280;40708;50.364;7.550;2023-07-30T08:45:40;102338.19;;;17.88;100.00
54808;BME280;40708;50.364;7.550;2023-07-30T08:48:06;102275.53;;;17.84;100.00
54808;BME280;40708;50.364;7.550;2023-07-30T08:50:31;102177.97;;;17.76;100.00
54808;BME280;40708;50.364;7.550;2023-07-30T08:52:59;102141.22;;;17.92;100.00
54808;BME280;40708;50.364;7.550;2023-07-30T08:55:26;102083.91;;;17.99;100.00
54808;BME280;40708;50.364;7.550;2023-07-30T08:57:54;102007.69;;;18.18;100.00
54808;BME280;40708;50.364;7.550;2023-07-30T09:00:22;101928.81;;;18.33;100.00
54808;BME280;40708;50.364;7.550;2023-07-30T09:02:58;101875.81;;;18.53;100.00
54808;BME280;40708;50.364;7.550;2023-07-30T09:05:26;101852.16;;;18.84;100.00
54808;BME280;40708;50.364;7.550;2023-07-30T09:07:54;101758.84;;;18.92;100.00
54808;BME280;40708;50.364;7.550;2023-07-30T09:10:20;101688.84;;;18.99;100.00
54808;BME280;40708;50.364;7.550;2023-07-30T09:12:52;101614.22;;;19.11;100.00
54808;BME280;40708;50.364;7.550;2023-07-30T09:15:18;101547.63;;;19.25;100.00
54808;BME280;40708;50.364;7.550;2023-07-30T09:17:43;101448.47;;;19.05;100.00
54808;BME280;40708;50.364;7.550;2023-07-30T09:20:10;101424.69;;;19.28;100.00
54808;BME280;40708;50.364;7.550;2023-07-30T09:22:35;101402.00;;;19.43;100.00
54808;BME280;40708;50.364;7.550;2023-07-30T09:25:04;101326.03;;;19.27;100.00
54808;BME280;40708;50.364;7.550;2023-07-30T09:27:31;101293.53;;;18.96;100.00
54808;BME280;40708;50.364;7.550;2023-07-30T09:29:59;101189.97;;;18.77;100.00
54808;BME280;40708;50.364;7.550;2023-07-30T09:32:26;101063.19;;;18.59;100.00
54808;BME280;40708;50.364;7.550;2023-07-30T09:34:52;100967.38;;;18.56;100.00
54808;BME280;40708;50.364;7.550;2023-07-30T09:37:17;100993.13;;;19.01;100.00
54808;BME280;40708;50.364;7.550;2023-07-30T09:39:43;100997.72;;;19.32;100.00
54808;BME280;40708;50.364;7.550;2023-07-30T09:42:11;100925.16;;;19.92;100.00
54808;BME280;40708;50.364;7.550;2023-07-30T09:44:37;100786.47;;;20.05;100.00
54808;BME280;40708;50.364;7.550;2023-07-30T09:47:04;100712.84;;;20.31;100.00
54808;BME280;40708;50.364;7.550;2023-07-30T09:49:30;100685.91;;;20.55;100.00
54808;BME280;40708;50.364;7.550;2023-07-30T09:51:57;100549.28;;;20.34;100.00
54808;BME280;40708;50.364;7.550;2023-07-30T09:54:23;100485.84;;;20.26;100.00
54808;BME280;40708;50.364;7.550;2023-07-30T09:56:48;100472.47;;;20.46;100.00
54808;BME280;40708;50.364;7.550;2023-07-30T09:59:13;100431.41;;;20.39;100.00
54808;BME280;40708;50.364;7.550;2023-07-30T10:01:44;100418.38;;;20.29;100.00
54808;BME280;40708;50.364;7.550;2023-07-30T10:04:10;100407.47;;;20.53;100.00
54808;BME280;40708;50.364;7.550;2023-07-30T10:06:39;100412.44;;;20.19;100.00
54808;BME280;40708;50.364;7.550;2023-07-30T10:09:07;100427.53;;;20.25;100.00
54808;BME280;40708;50.364;7.550;2023-07-30T10:11:35;100437.09;;;20.32;100.00
54808;BME280;40708;50.364;7.550;2023-07-30T10:14:01;100445.03;;;20.11;100.00
54808;BME280;40708;50.364;7.550;2023-07-30T10:16:28;100463.44;;;20.24;100.00
54808;BME280;40708;50.364;7.550;2023-07-30T10:18:57;100462.75;;;20.18;100.00
54808;BME280;40708;50.364;7.550;2023-07-30T10:21:25;100480.06;;;19.88;100.00
54808;BME280;40708;50.364;7.550;2023-07-30T10:24:03;100463.59;;;19.48;100.00
54808;BME280;40708;50.364;7.550;2023-07-30T10:26:33;100488.94;;;19.41;100.00
54808;BME280;40708;50.364;7.550;2023-07-30T10:29:12;100492.59;;;19.40;100.00
54808;BME280;40708;50.364;7.550;2023-07-30T10:31:52;100467.97;;;19.24;100.00
54808;BME280;40708;50.364;7.550;2023-07-30T10:34:17;100459.69;;;19.30;100.00
54808;BME280;40708;50.364;7.550;2023-07-30T10:36:48;100459.09;;;19.22;100.00
54808;BME280;40708;50.364;7.550;2023-07-30T10:39:18;100459.31;;;19.42;100.00
54808;BME280;40708;50.364;7.550;2023-07-30T10:41:55;100447.94;;;19.59;100.00
54808;BME280;40708;50.364;7.550;2023-07-30T10:44:34;100447.97;;;19.82;100.00
54808;BME280;40708;50.364;7.550;2023-07-30T10:47:01;100410.25;;;19.84;100.00
54808;BME280;40708;50.364;7.550;2023-07-30T10:49:27;100405.97;;;19.78;100.00
54808;BME280;40708;50.364;7.550;2023-07-30T10:51:54;100430.28;;;19.98;100.00
54808;BME280;40708;50.364;7.550;2023-07-30T10:54:19;100392.16;;;20.09;100.00
54808;BME280;40708;50.364;7.550;2023-07-30T10:56:45;100417.06;;;20.39;100.00
54808;BME280;40708;50.364;7.550;2023-07-30T10:59:11;100402.97;;;20.54;100.00
54808;BME280;40708;50.364;7.550;2023-07-30T11:04:15;100338.16;;;20.57;100.00
54808;BME280;40708;50.364;7.550;2023-07-30T11:06:50;100331.22;;;20.30;100.00
54808;BME280;40708;50.364;7.550;2023-07-30T11:09:26;100323.06;;;20.31;100.00
54808;BME280;40708;50.364;7.550;2023-07-30T11:11:53;100323.31;;;20.89;100.00
54808;BME280;40708;50.364;7.550;2023-07-30T11:14:21;100282.75;;;20.90;100.00
54808;BME280;40708;50.364;7.550;2023-07-30T11:16:51;100281.28;;;21.23;100.00
54808;BME280;40708;50.364;7.550;2023-07-30T11:19:17;100267.50;;;21.50;100.00
54808;BME280;40708;50.364;7.550;2023-07-30T11:21:51;100249.88;;;21.22;100.00
54808;BME280;40708;50.364;7.550;2023-07-30T11:24:17;100253.91;;;21.12;100.00
54808;BME280;40708;50.364;7.550;2023-07-30T11:26:43;100250.03;;;21.38;100.00
54808;BME280;40708;50.364;7.550;2023-07-30T11:29:19;100243.47;;;21.05;100.00
54808;BME280;40708;50.364;7.550;2023-07-30T11:31:46;100240.91;;;21.02;100.00
54808;BME280;40708;50.364;7.550;2023-07-30T11:34:13;100241.25;;;20.94;100.00
54808;BME280;40708;50.364;7.550;2023-07-30T11:36:43;100234.50;;;21.24;100.00
54808;BME280;40708;50.364;7.550;2023-07-30T11:39:10;100262.75;;;21.16;100.00
54808;BME280;40708;50.364;7.550;2023-07-30T11:41:36;100262.94;;;21.31;100.00
54808;BME280;40708;50.364;7.550;2023-07-30T11:44:02;100263.44;;;21.40;100.00
54808;BME280;40708;50.364;7.550;2023-07-30T11:46:27;100260.63;;;21.99;100.00
54808;BME280;40708;50.364;7.550;2023-07-30T11:49:11;100251.44;;;21.65;100.00
54808;BME280;40708;50.364;7.550;2023-07-30T11:51:36;100254.41;;;21.78;100.00
54808;BME280;40708;50.364;7.550;2023-07-30T11:54:02;100249.88;;;21.97;100.00
54808;BME280;40708;50.364;7.550;2023-07-30T11:56:28;100244.03;;;21.69;100.00
54808;BME280;40708;50.364;7.550;2023-07-30T11:58:59;100223.41;;;21.49;100.00
54808;BME280;40708;50.364;7.550;2023-07-30T12:01:26;100248.72;;;21.47;100.00
54808;BME280;40708;50.364;7.550;2023-07-30T12:03:55;100251.34;;;21.67;100.00
54808;BME280;40708;50.364;7.550;2023-07-30T12:06:21;100241.84;;;21.77;100.00
54808;BME280;40708;50.364;7.550;2023-07-30T12:08:49;100249.84;;;21.99;100.00
54808;BME280;40708;50.364;7.550;2023-07-30T12:11:17;100250.34;;;22.24;100.00
54808;BME280;40708;50.364;7.550;2023-07-30T12:13:44;100252.34;;;22.37;100.00
54808;BME280;40708;50.364;7.550;2023-07-30T12:16:13;100239.25;;;22.47;100.00
54808;BME280;40708;50.364;7.550;2023-07-30T12:18:39;100233.69;;;22.50;100.00
54808;BME280;40708;50.364;7.550;2023-07-30T12:21:05;100236.91;;;23.08;100.00
54808;BME280;40708;50.364;7.550;2023-07-30T12:23:32;100214.78;;;23.33;100.00
54808;BME280;40708;50.364;7.550;2023-07-30T12:25:58;100216.75;;;23.13;100.00
54808;BME280;40708;50.364;7.550;2023-07-30T12:28:23;100201.66;;;23.42;100.00
54808;BME280;40708;50.364;7.550;2023-07-30T12:30:48;100213.41;;;22.93;100.00
54808;BME280;40708;50.364;7.550;2023-07-30T12:33:13;100217.34;;;23.03;100.00
54808;BME280;40708;50.364;7.550;2023-07-30T12:35:39;100224.84;;;22.81;100.00
54808;BME280;40708;50.364;7.550;2023-07-30T12:38:04;100224.38;;;22.56;100.00